<?xml version="1.0" encoding="UTF-8" standalone="no" ?>
<gpx xmlns="http://www.topografix.com/GPX/1/1" xmlns:xsi="http://www.w3.org/2001/XMLSchema-instance" xsi:schemaLocation="http://www.topografix.com/GPX/1/1 http://www.topografix.com/GPX/1/1/gpx.xsd" version="1.1" creator="VisuGPX - https://www.visugpx.com">
  <metadata>
    <name>MOTO CORSICA</name>
  </metadata>
  <wpt lat="45.87977" lon="4.59604">
    <ele>292.6</ele>
    <name><![CDATA[Argon]]></name>
  </wpt>
  <wpt lat="41.62056" lon="9.29931">
    <ele>40.02</ele>
    <name><![CDATA[Camping Porto Vecchio]]></name>
  </wpt>
  <wpt lat="43.29702" lon="3.51216">
    <ele>-1.08</ele>
    <name><![CDATA[Cassiopee]]></name>
  </wpt>
  <wpt lat="41.62054" lon="9.29927">
    <ele>24.88</ele>
    <name><![CDATA[Dernière position]]></name>
  </wpt>
  <wpt lat="25.06178" lon="121.64027">
    <ele>38.1</ele>
    <name><![CDATA[Garmin Asia]]></name>
  </wpt>
  <wpt lat="50.9017" lon="-1.48935">
    <ele>35.93</ele>
    <name><![CDATA[Garmin Europe]]></name>
  </wpt>
  <wpt lat="38.85555" lon="-94.79902">
    <ele>325.05</ele>
    <name><![CDATA[Garmin USA]]></name>
  </wpt>
  <wpt lat="45.53375" lon="4.6308">
    <ele>238.77</ele>
    <name><![CDATA[Zezette]]></name>
  </wpt>
  <trk>
    <name><![CDATA[Enregistremen: 03 JUIN 2014 21:24]]></name>
    <trkseg>
      <trkpt lat="41.38773" lon="9.15515">
        <ele>88.58</ele>
        <time>2014-06-03T19:24:13Z</time>
      </trkpt>
      <trkpt lat="41.38747" lon="9.15519">
        <ele>51.57</ele>
        <time>2014-06-03T19:24:46Z</time>
      </trkpt>
      <trkpt lat="41.38746" lon="9.15519">
        <ele>52.05</ele>
        <time>2014-06-03T19:25:31Z</time>
      </trkpt>
      <trkpt lat="41.38745" lon="9.1552">
        <ele>51.57</ele>
        <time>2014-06-03T19:26:06Z</time>
      </trkpt>
      <trkpt lat="41.38742" lon="9.15521">
        <ele>51.09</ele>
        <time>2014-06-03T19:26:38Z</time>
      </trkpt>
      <trkpt lat="41.38742" lon="9.15521">
        <ele>51.09</ele>
        <time>2014-06-03T19:26:55Z</time>
      </trkpt>
      <trkpt lat="41.38744" lon="9.15534">
        <ele>51.57</ele>
        <time>2014-06-03T19:26:59Z</time>
      </trkpt>
      <trkpt lat="41.38743" lon="9.1554">
        <ele>51.57</ele>
        <time>2014-06-03T19:27:00Z</time>
      </trkpt>
      <trkpt lat="41.38736" lon="9.15615">
        <ele>49.65</ele>
        <time>2014-06-03T19:27:10Z</time>
      </trkpt>
      <trkpt lat="41.38734" lon="9.1562">
        <ele>49.16</ele>
        <time>2014-06-03T19:27:11Z</time>
      </trkpt>
      <trkpt lat="41.38726" lon="9.15634">
        <ele>47.72</ele>
        <time>2014-06-03T19:27:14Z</time>
      </trkpt>
      <trkpt lat="41.38728" lon="9.15662">
        <ele>45.8</ele>
        <time>2014-06-03T19:27:21Z</time>
      </trkpt>
      <trkpt lat="41.38719" lon="9.15686">
        <ele>43.4</ele>
        <time>2014-06-03T19:27:25Z</time>
      </trkpt>
      <trkpt lat="41.38716" lon="9.15701">
        <ele>42.92</ele>
        <time>2014-06-03T19:27:27Z</time>
      </trkpt>
      <trkpt lat="41.38709" lon="9.15741">
        <ele>40.99</ele>
        <time>2014-06-03T19:27:32Z</time>
      </trkpt>
      <trkpt lat="41.38708" lon="9.15748">
        <ele>40.99</ele>
        <time>2014-06-03T19:27:33Z</time>
      </trkpt>
      <trkpt lat="41.38705" lon="9.15773">
        <ele>40.03</ele>
        <time>2014-06-03T19:27:37Z</time>
      </trkpt>
      <trkpt lat="41.3869" lon="9.15816">
        <ele>38.11</ele>
        <time>2014-06-03T19:27:46Z</time>
      </trkpt>
      <trkpt lat="41.38692" lon="9.15819">
        <ele>37.63</ele>
        <time>2014-06-03T19:27:47Z</time>
      </trkpt>
      <trkpt lat="41.38694" lon="9.15821">
        <ele>37.63</ele>
        <time>2014-06-03T19:27:48Z</time>
      </trkpt>
      <trkpt lat="41.38715" lon="9.1583">
        <ele>35.23</ele>
        <time>2014-06-03T19:27:55Z</time>
      </trkpt>
      <trkpt lat="41.3873" lon="9.15831">
        <ele>34.26</ele>
        <time>2014-06-03T19:27:58Z</time>
      </trkpt>
      <trkpt lat="41.38733" lon="9.15831">
        <ele>33.78</ele>
        <time>2014-06-03T19:27:59Z</time>
      </trkpt>
      <trkpt lat="41.38744" lon="9.15827">
        <ele>32.34</ele>
        <time>2014-06-03T19:28:02Z</time>
      </trkpt>
      <trkpt lat="41.38747" lon="9.15823">
        <ele>32.34</ele>
        <time>2014-06-03T19:28:03Z</time>
      </trkpt>
      <trkpt lat="41.3875" lon="9.15821">
        <ele>32.34</ele>
        <time>2014-06-03T19:28:05Z</time>
      </trkpt>
      <trkpt lat="41.38757" lon="9.1583">
        <ele>32.34</ele>
        <time>2014-06-03T19:28:06Z</time>
      </trkpt>
      <trkpt lat="41.38774" lon="9.15875">
        <ele>30.9</ele>
        <time>2014-06-03T19:28:15Z</time>
      </trkpt>
      <trkpt lat="41.38774" lon="9.15882">
        <ele>29.94</ele>
        <time>2014-06-03T19:28:16Z</time>
      </trkpt>
      <trkpt lat="41.38791" lon="9.15962">
        <ele>28.98</ele>
        <time>2014-06-03T19:28:24Z</time>
      </trkpt>
      <trkpt lat="41.38795" lon="9.15973">
        <ele>29.46</ele>
        <time>2014-06-03T19:28:25Z</time>
      </trkpt>
      <trkpt lat="41.38809" lon="9.16014">
        <ele>28.5</ele>
        <time>2014-06-03T19:28:29Z</time>
      </trkpt>
      <trkpt lat="41.38811" lon="9.16022">
        <ele>28.02</ele>
        <time>2014-06-03T19:28:30Z</time>
      </trkpt>
      <trkpt lat="41.38815" lon="9.16035">
        <ele>28.02</ele>
        <time>2014-06-03T19:28:32Z</time>
      </trkpt>
      <trkpt lat="41.3882" lon="9.16054">
        <ele>27.05</ele>
        <time>2014-06-03T19:28:36Z</time>
      </trkpt>
      <trkpt lat="41.3882" lon="9.16062">
        <ele>27.05</ele>
        <time>2014-06-03T19:28:37Z</time>
      </trkpt>
      <trkpt lat="41.38818" lon="9.16071">
        <ele>27.05</ele>
        <time>2014-06-03T19:28:38Z</time>
      </trkpt>
      <trkpt lat="41.38814" lon="9.1608">
        <ele>26.09</ele>
        <time>2014-06-03T19:28:39Z</time>
      </trkpt>
      <trkpt lat="41.38808" lon="9.16085">
        <ele>26.09</ele>
        <time>2014-06-03T19:28:40Z</time>
      </trkpt>
      <trkpt lat="41.38799" lon="9.16087">
        <ele>25.61</ele>
        <time>2014-06-03T19:28:41Z</time>
      </trkpt>
      <trkpt lat="41.38789" lon="9.16089">
        <ele>24.65</ele>
        <time>2014-06-03T19:28:42Z</time>
      </trkpt>
      <trkpt lat="41.38769" lon="9.16089">
        <ele>23.21</ele>
        <time>2014-06-03T19:28:44Z</time>
      </trkpt>
      <trkpt lat="41.38758" lon="9.16086">
        <ele>22.73</ele>
        <time>2014-06-03T19:28:45Z</time>
      </trkpt>
      <trkpt lat="41.38745" lon="9.16082">
        <ele>21.29</ele>
        <time>2014-06-03T19:28:46Z</time>
      </trkpt>
      <trkpt lat="41.38735" lon="9.16077">
        <ele>21.77</ele>
        <time>2014-06-03T19:28:47Z</time>
      </trkpt>
      <trkpt lat="41.38726" lon="9.16072">
        <ele>21.29</ele>
        <time>2014-06-03T19:28:48Z</time>
      </trkpt>
      <trkpt lat="41.38703" lon="9.16061">
        <ele>19.84</ele>
        <time>2014-06-03T19:28:51Z</time>
      </trkpt>
      <trkpt lat="41.38696" lon="9.1606">
        <ele>19.36</ele>
        <time>2014-06-03T19:28:52Z</time>
      </trkpt>
      <trkpt lat="41.3869" lon="9.16063">
        <ele>18.88</ele>
        <time>2014-06-03T19:28:53Z</time>
      </trkpt>
      <trkpt lat="41.38688" lon="9.1607">
        <ele>18.4</ele>
        <time>2014-06-03T19:28:54Z</time>
      </trkpt>
      <trkpt lat="41.38688" lon="9.16078">
        <ele>18.4</ele>
        <time>2014-06-03T19:28:55Z</time>
      </trkpt>
      <trkpt lat="41.3869" lon="9.16087">
        <ele>18.4</ele>
        <time>2014-06-03T19:28:56Z</time>
      </trkpt>
      <trkpt lat="41.38693" lon="9.16096">
        <ele>17.92</ele>
        <time>2014-06-03T19:28:57Z</time>
      </trkpt>
      <trkpt lat="41.38696" lon="9.16106">
        <ele>17.92</ele>
        <time>2014-06-03T19:28:58Z</time>
      </trkpt>
      <trkpt lat="41.38726" lon="9.16167">
        <ele>16.48</ele>
        <time>2014-06-03T19:29:04Z</time>
      </trkpt>
      <trkpt lat="41.38755" lon="9.16202">
        <ele>14.08</ele>
        <time>2014-06-03T19:29:08Z</time>
      </trkpt>
      <trkpt lat="41.3876" lon="9.16211">
        <ele>14.08</ele>
        <time>2014-06-03T19:29:09Z</time>
      </trkpt>
      <trkpt lat="41.38764" lon="9.16221">
        <ele>13.6</ele>
        <time>2014-06-03T19:29:10Z</time>
      </trkpt>
      <trkpt lat="41.38766" lon="9.16231">
        <ele>12.63</ele>
        <time>2014-06-03T19:29:11Z</time>
      </trkpt>
      <trkpt lat="41.38767" lon="9.16242">
        <ele>12.15</ele>
        <time>2014-06-03T19:29:12Z</time>
      </trkpt>
      <trkpt lat="41.38766" lon="9.16254">
        <ele>11.67</ele>
        <time>2014-06-03T19:29:13Z</time>
      </trkpt>
      <trkpt lat="41.38764" lon="9.16265">
        <ele>11.19</ele>
        <time>2014-06-03T19:29:14Z</time>
      </trkpt>
      <trkpt lat="41.38761" lon="9.16278">
        <ele>10.71</ele>
        <time>2014-06-03T19:29:15Z</time>
      </trkpt>
      <trkpt lat="41.38761" lon="9.16302">
        <ele>9.75</ele>
        <time>2014-06-03T19:29:17Z</time>
      </trkpt>
      <trkpt lat="41.38762" lon="9.16313">
        <ele>9.27</ele>
        <time>2014-06-03T19:29:18Z</time>
      </trkpt>
      <trkpt lat="41.38759" lon="9.16349">
        <ele>8.31</ele>
        <time>2014-06-03T19:29:21Z</time>
      </trkpt>
      <trkpt lat="41.38756" lon="9.16393">
        <ele>7.83</ele>
        <time>2014-06-03T19:29:24Z</time>
      </trkpt>
      <trkpt lat="41.38756" lon="9.16419">
        <ele>6.87</ele>
        <time>2014-06-03T19:29:26Z</time>
      </trkpt>
      <trkpt lat="41.38758" lon="9.16429">
        <ele>6.39</ele>
        <time>2014-06-03T19:29:27Z</time>
      </trkpt>
      <trkpt lat="41.38761" lon="9.1644">
        <ele>6.39</ele>
        <time>2014-06-03T19:29:28Z</time>
      </trkpt>
      <trkpt lat="41.38767" lon="9.1645">
        <ele>5.91</ele>
        <time>2014-06-03T19:29:29Z</time>
      </trkpt>
      <trkpt lat="41.38773" lon="9.1646">
        <ele>5.91</ele>
        <time>2014-06-03T19:29:30Z</time>
      </trkpt>
      <trkpt lat="41.38782" lon="9.16479">
        <ele>5.42</ele>
        <time>2014-06-03T19:29:32Z</time>
      </trkpt>
      <trkpt lat="41.38785" lon="9.16491">
        <ele>4.94</ele>
        <time>2014-06-03T19:29:33Z</time>
      </trkpt>
      <trkpt lat="41.38787" lon="9.16504">
        <ele>4.94</ele>
        <time>2014-06-03T19:29:34Z</time>
      </trkpt>
      <trkpt lat="41.38797" lon="9.16545">
        <ele>3.98</ele>
        <time>2014-06-03T19:29:37Z</time>
      </trkpt>
      <trkpt lat="41.38808" lon="9.16582">
        <ele>3.5</ele>
        <time>2014-06-03T19:29:40Z</time>
      </trkpt>
      <trkpt lat="41.38814" lon="9.1659">
        <ele>3.5</ele>
        <time>2014-06-03T19:29:41Z</time>
      </trkpt>
      <trkpt lat="41.38824" lon="9.16596">
        <ele>3.02</ele>
        <time>2014-06-03T19:29:42Z</time>
      </trkpt>
      <trkpt lat="41.38832" lon="9.16598">
        <ele>3.02</ele>
        <time>2014-06-03T19:29:43Z</time>
      </trkpt>
      <trkpt lat="41.38839" lon="9.16598">
        <ele>2.06</ele>
        <time>2014-06-03T19:29:44Z</time>
      </trkpt>
      <trkpt lat="41.38844" lon="9.16599">
        <ele>1.58</ele>
        <time>2014-06-03T19:29:45Z</time>
      </trkpt>
      <trkpt lat="41.38848" lon="9.16601">
        <ele>2.06</ele>
        <time>2014-06-03T19:29:46Z</time>
      </trkpt>
      <trkpt lat="41.38851" lon="9.16606">
        <ele>1.58</ele>
        <time>2014-06-03T19:29:47Z</time>
      </trkpt>
      <trkpt lat="41.38851" lon="9.16612">
        <ele>1.58</ele>
        <time>2014-06-03T19:29:48Z</time>
      </trkpt>
      <trkpt lat="41.3885" lon="9.1662">
        <ele>1.58</ele>
        <time>2014-06-03T19:29:49Z</time>
      </trkpt>
      <trkpt lat="41.38846" lon="9.16628">
        <ele>0.62</ele>
        <time>2014-06-03T19:29:50Z</time>
      </trkpt>
      <trkpt lat="41.38842" lon="9.16634">
        <ele>0.14</ele>
        <time>2014-06-03T19:29:51Z</time>
      </trkpt>
      <trkpt lat="41.38839" lon="9.1664">
        <ele>-0.82</ele>
        <time>2014-06-03T19:29:52Z</time>
      </trkpt>
      <trkpt lat="41.38821" lon="9.16675">
        <ele>-0.82</ele>
        <time>2014-06-03T19:29:57Z</time>
      </trkpt>
      <trkpt lat="41.38818" lon="9.16682">
        <ele>-1.79</ele>
        <time>2014-06-03T19:29:58Z</time>
      </trkpt>
      <trkpt lat="41.38785" lon="9.16746">
        <ele>-3.71</ele>
        <time>2014-06-03T19:30:04Z</time>
      </trkpt>
      <trkpt lat="41.38773" lon="9.1678">
        <ele>-4.67</ele>
        <time>2014-06-03T19:30:08Z</time>
      </trkpt>
      <trkpt lat="41.38772" lon="9.16788">
        <ele>-5.15</ele>
        <time>2014-06-03T19:30:09Z</time>
      </trkpt>
      <trkpt lat="41.38774" lon="9.16794">
        <ele>-5.15</ele>
        <time>2014-06-03T19:30:10Z</time>
      </trkpt>
      <trkpt lat="41.38779" lon="9.16799">
        <ele>-4.67</ele>
        <time>2014-06-03T19:30:11Z</time>
      </trkpt>
      <trkpt lat="41.38786" lon="9.16803">
        <ele>-4.67</ele>
        <time>2014-06-03T19:30:12Z</time>
      </trkpt>
      <trkpt lat="41.38794" lon="9.16807">
        <ele>-4.19</ele>
        <time>2014-06-03T19:30:13Z</time>
      </trkpt>
      <trkpt lat="41.38802" lon="9.1681">
        <ele>-4.67</ele>
        <time>2014-06-03T19:30:14Z</time>
      </trkpt>
      <trkpt lat="41.38818" lon="9.16814">
        <ele>-4.67</ele>
        <time>2014-06-03T19:30:16Z</time>
      </trkpt>
      <trkpt lat="41.38826" lon="9.16814">
        <ele>-4.67</ele>
        <time>2014-06-03T19:30:17Z</time>
      </trkpt>
      <trkpt lat="41.38833" lon="9.16811">
        <ele>-5.15</ele>
        <time>2014-06-03T19:30:18Z</time>
      </trkpt>
      <trkpt lat="41.3884" lon="9.16808">
        <ele>-5.15</ele>
        <time>2014-06-03T19:30:19Z</time>
      </trkpt>
      <trkpt lat="41.38846" lon="9.16803">
        <ele>-5.15</ele>
        <time>2014-06-03T19:30:20Z</time>
      </trkpt>
      <trkpt lat="41.38853" lon="9.16797">
        <ele>-5.15</ele>
        <time>2014-06-03T19:30:21Z</time>
      </trkpt>
      <trkpt lat="41.38858" lon="9.1679">
        <ele>-5.15</ele>
        <time>2014-06-03T19:30:22Z</time>
      </trkpt>
      <trkpt lat="41.38864" lon="9.16784">
        <ele>-5.63</ele>
        <time>2014-06-03T19:30:23Z</time>
      </trkpt>
      <trkpt lat="41.3887" lon="9.16779">
        <ele>-6.11</ele>
        <time>2014-06-03T19:30:24Z</time>
      </trkpt>
      <trkpt lat="41.38876" lon="9.16776">
        <ele>-6.11</ele>
        <time>2014-06-03T19:30:25Z</time>
      </trkpt>
      <trkpt lat="41.38884" lon="9.16775">
        <ele>-6.11</ele>
        <time>2014-06-03T19:30:26Z</time>
      </trkpt>
      <trkpt lat="41.38895" lon="9.16775">
        <ele>-6.59</ele>
        <time>2014-06-03T19:30:27Z</time>
      </trkpt>
      <trkpt lat="41.38913" lon="9.16771">
        <ele>-6.11</ele>
        <time>2014-06-03T19:30:29Z</time>
      </trkpt>
      <trkpt lat="41.38919" lon="9.16765">
        <ele>-6.11</ele>
        <time>2014-06-03T19:30:30Z</time>
      </trkpt>
      <trkpt lat="41.38922" lon="9.16757">
        <ele>-6.11</ele>
        <time>2014-06-03T19:30:31Z</time>
      </trkpt>
      <trkpt lat="41.38924" lon="9.16746">
        <ele>-6.11</ele>
        <time>2014-06-03T19:30:32Z</time>
      </trkpt>
      <trkpt lat="41.38926" lon="9.16734">
        <ele>-6.11</ele>
        <time>2014-06-03T19:30:33Z</time>
      </trkpt>
      <trkpt lat="41.38927" lon="9.16721">
        <ele>-6.11</ele>
        <time>2014-06-03T19:30:34Z</time>
      </trkpt>
      <trkpt lat="41.38928" lon="9.16706">
        <ele>-6.11</ele>
        <time>2014-06-03T19:30:35Z</time>
      </trkpt>
      <trkpt lat="41.38942" lon="9.16569">
        <ele>-6.11</ele>
        <time>2014-06-03T19:30:45Z</time>
      </trkpt>
      <trkpt lat="41.38944" lon="9.16561">
        <ele>-6.11</ele>
        <time>2014-06-03T19:30:46Z</time>
      </trkpt>
      <trkpt lat="41.38947" lon="9.16554">
        <ele>-5.63</ele>
        <time>2014-06-03T19:30:47Z</time>
      </trkpt>
      <trkpt lat="41.38951" lon="9.16548">
        <ele>-5.63</ele>
        <time>2014-06-03T19:30:48Z</time>
      </trkpt>
      <trkpt lat="41.38957" lon="9.16543">
        <ele>-5.15</ele>
        <time>2014-06-03T19:30:49Z</time>
      </trkpt>
      <trkpt lat="41.38965" lon="9.16539">
        <ele>-5.15</ele>
        <time>2014-06-03T19:30:50Z</time>
      </trkpt>
      <trkpt lat="41.38976" lon="9.16534">
        <ele>-5.15</ele>
        <time>2014-06-03T19:30:51Z</time>
      </trkpt>
      <trkpt lat="41.38987" lon="9.1653">
        <ele>-5.63</ele>
        <time>2014-06-03T19:30:52Z</time>
      </trkpt>
      <trkpt lat="41.38999" lon="9.16526">
        <ele>-5.63</ele>
        <time>2014-06-03T19:30:53Z</time>
      </trkpt>
      <trkpt lat="41.39096" lon="9.1651">
        <ele>-5.63</ele>
        <time>2014-06-03T19:31:00Z</time>
      </trkpt>
      <trkpt lat="41.39192" lon="9.16534">
        <ele>-1.3</ele>
        <time>2014-06-03T19:31:08Z</time>
      </trkpt>
      <trkpt lat="41.39255" lon="9.16566">
        <ele>2.54</ele>
        <time>2014-06-03T19:31:14Z</time>
      </trkpt>
      <trkpt lat="41.39264" lon="9.16567">
        <ele>3.5</ele>
        <time>2014-06-03T19:31:15Z</time>
      </trkpt>
      <trkpt lat="41.39273" lon="9.16564">
        <ele>3.98</ele>
        <time>2014-06-03T19:31:16Z</time>
      </trkpt>
      <trkpt lat="41.39282" lon="9.16556">
        <ele>3.98</ele>
        <time>2014-06-03T19:31:17Z</time>
      </trkpt>
      <trkpt lat="41.3929" lon="9.16549">
        <ele>4.46</ele>
        <time>2014-06-03T19:31:18Z</time>
      </trkpt>
      <trkpt lat="41.39298" lon="9.16541">
        <ele>4.94</ele>
        <time>2014-06-03T19:31:19Z</time>
      </trkpt>
      <trkpt lat="41.39305" lon="9.16532">
        <ele>5.42</ele>
        <time>2014-06-03T19:31:20Z</time>
      </trkpt>
      <trkpt lat="41.39313" lon="9.16526">
        <ele>5.91</ele>
        <time>2014-06-03T19:31:21Z</time>
      </trkpt>
      <trkpt lat="41.39322" lon="9.16521">
        <ele>6.39</ele>
        <time>2014-06-03T19:31:22Z</time>
      </trkpt>
      <trkpt lat="41.39333" lon="9.16517">
        <ele>6.87</ele>
        <time>2014-06-03T19:31:23Z</time>
      </trkpt>
      <trkpt lat="41.39344" lon="9.16513">
        <ele>7.35</ele>
        <time>2014-06-03T19:31:24Z</time>
      </trkpt>
      <trkpt lat="41.39354" lon="9.1651">
        <ele>8.31</ele>
        <time>2014-06-03T19:31:25Z</time>
      </trkpt>
      <trkpt lat="41.39372" lon="9.16499">
        <ele>9.27</ele>
        <time>2014-06-03T19:31:27Z</time>
      </trkpt>
      <trkpt lat="41.39379" lon="9.1649">
        <ele>10.23</ele>
        <time>2014-06-03T19:31:28Z</time>
      </trkpt>
      <trkpt lat="41.39386" lon="9.16478">
        <ele>10.71</ele>
        <time>2014-06-03T19:31:29Z</time>
      </trkpt>
      <trkpt lat="41.3943" lon="9.16368">
        <ele>17.44</ele>
        <time>2014-06-03T19:31:37Z</time>
      </trkpt>
      <trkpt lat="41.39446" lon="9.16297">
        <ele>20.32</ele>
        <time>2014-06-03T19:31:42Z</time>
      </trkpt>
      <trkpt lat="41.39451" lon="9.16286">
        <ele>20.81</ele>
        <time>2014-06-03T19:31:43Z</time>
      </trkpt>
      <trkpt lat="41.39459" lon="9.16276">
        <ele>21.77</ele>
        <time>2014-06-03T19:31:44Z</time>
      </trkpt>
      <trkpt lat="41.39468" lon="9.16267">
        <ele>22.25</ele>
        <time>2014-06-03T19:31:45Z</time>
      </trkpt>
      <trkpt lat="41.39479" lon="9.16259">
        <ele>23.21</ele>
        <time>2014-06-03T19:31:46Z</time>
      </trkpt>
      <trkpt lat="41.39492" lon="9.16253">
        <ele>24.17</ele>
        <time>2014-06-03T19:31:47Z</time>
      </trkpt>
      <trkpt lat="41.39505" lon="9.16246">
        <ele>24.65</ele>
        <time>2014-06-03T19:31:48Z</time>
      </trkpt>
      <trkpt lat="41.39592" lon="9.16228">
        <ele>28.5</ele>
        <time>2014-06-03T19:31:55Z</time>
      </trkpt>
      <trkpt lat="41.39601" lon="9.1623">
        <ele>28.98</ele>
        <time>2014-06-03T19:31:56Z</time>
      </trkpt>
      <trkpt lat="41.39611" lon="9.16236">
        <ele>29.46</ele>
        <time>2014-06-03T19:31:57Z</time>
      </trkpt>
      <trkpt lat="41.3962" lon="9.16243">
        <ele>30.42</ele>
        <time>2014-06-03T19:31:58Z</time>
      </trkpt>
      <trkpt lat="41.39627" lon="9.16251">
        <ele>30.42</ele>
        <time>2014-06-03T19:31:59Z</time>
      </trkpt>
      <trkpt lat="41.39632" lon="9.16261">
        <ele>31.38</ele>
        <time>2014-06-03T19:32:00Z</time>
      </trkpt>
      <trkpt lat="41.39637" lon="9.16273">
        <ele>31.86</ele>
        <time>2014-06-03T19:32:01Z</time>
      </trkpt>
      <trkpt lat="41.39639" lon="9.16286">
        <ele>32.34</ele>
        <time>2014-06-03T19:32:02Z</time>
      </trkpt>
      <trkpt lat="41.3964" lon="9.16299">
        <ele>32.82</ele>
        <time>2014-06-03T19:32:03Z</time>
      </trkpt>
      <trkpt lat="41.39653" lon="9.16332">
        <ele>34.74</ele>
        <time>2014-06-03T19:32:06Z</time>
      </trkpt>
      <trkpt lat="41.39661" lon="9.1634">
        <ele>36.19</ele>
        <time>2014-06-03T19:32:07Z</time>
      </trkpt>
      <trkpt lat="41.3967" lon="9.16346">
        <ele>36.67</ele>
        <time>2014-06-03T19:32:08Z</time>
      </trkpt>
      <trkpt lat="41.39682" lon="9.1635">
        <ele>37.15</ele>
        <time>2014-06-03T19:32:09Z</time>
      </trkpt>
      <trkpt lat="41.39696" lon="9.16352">
        <ele>37.15</ele>
        <time>2014-06-03T19:32:10Z</time>
      </trkpt>
      <trkpt lat="41.39711" lon="9.16353">
        <ele>37.63</ele>
        <time>2014-06-03T19:32:11Z</time>
      </trkpt>
      <trkpt lat="41.3977" lon="9.16363">
        <ele>38.11</ele>
        <time>2014-06-03T19:32:15Z</time>
      </trkpt>
      <trkpt lat="41.39783" lon="9.16369">
        <ele>38.59</ele>
        <time>2014-06-03T19:32:16Z</time>
      </trkpt>
      <trkpt lat="41.39796" lon="9.16377">
        <ele>39.07</ele>
        <time>2014-06-03T19:32:17Z</time>
      </trkpt>
      <trkpt lat="41.39808" lon="9.16387">
        <ele>39.55</ele>
        <time>2014-06-03T19:32:18Z</time>
      </trkpt>
      <trkpt lat="41.39818" lon="9.16397">
        <ele>40.03</ele>
        <time>2014-06-03T19:32:19Z</time>
      </trkpt>
      <trkpt lat="41.39828" lon="9.1641">
        <ele>40.99</ele>
        <time>2014-06-03T19:32:20Z</time>
      </trkpt>
      <trkpt lat="41.39944" lon="9.16536">
        <ele>49.16</ele>
        <time>2014-06-03T19:32:32Z</time>
      </trkpt>
      <trkpt lat="41.39951" lon="9.16544">
        <ele>50.61</ele>
        <time>2014-06-03T19:32:33Z</time>
      </trkpt>
      <trkpt lat="41.39957" lon="9.16553">
        <ele>50.61</ele>
        <time>2014-06-03T19:32:34Z</time>
      </trkpt>
      <trkpt lat="41.39984" lon="9.16615">
        <ele>53.49</ele>
        <time>2014-06-03T19:32:39Z</time>
      </trkpt>
      <trkpt lat="41.39992" lon="9.16627">
        <ele>53.49</ele>
        <time>2014-06-03T19:32:40Z</time>
      </trkpt>
      <trkpt lat="41.40002" lon="9.16637">
        <ele>53.01</ele>
        <time>2014-06-03T19:32:41Z</time>
      </trkpt>
      <trkpt lat="41.40015" lon="9.16647">
        <ele>53.01</ele>
        <time>2014-06-03T19:32:42Z</time>
      </trkpt>
      <trkpt lat="41.40028" lon="9.16657">
        <ele>53.01</ele>
        <time>2014-06-03T19:32:43Z</time>
      </trkpt>
      <trkpt lat="41.40056" lon="9.16681">
        <ele>53.01</ele>
        <time>2014-06-03T19:32:45Z</time>
      </trkpt>
      <trkpt lat="41.40162" lon="9.16802">
        <ele>55.89</ele>
        <time>2014-06-03T19:32:53Z</time>
      </trkpt>
      <trkpt lat="41.40185" lon="9.16827">
        <ele>58.78</ele>
        <time>2014-06-03T19:32:55Z</time>
      </trkpt>
      <trkpt lat="41.40198" lon="9.16835">
        <ele>59.74</ele>
        <time>2014-06-03T19:32:56Z</time>
      </trkpt>
      <trkpt lat="41.40212" lon="9.1684">
        <ele>60.22</ele>
        <time>2014-06-03T19:32:57Z</time>
      </trkpt>
      <trkpt lat="41.40227" lon="9.16843">
        <ele>61.18</ele>
        <time>2014-06-03T19:32:58Z</time>
      </trkpt>
      <trkpt lat="41.40243" lon="9.16844">
        <ele>61.18</ele>
        <time>2014-06-03T19:32:59Z</time>
      </trkpt>
      <trkpt lat="41.40362" lon="9.16856">
        <ele>64.07</ele>
        <time>2014-06-03T19:33:06Z</time>
      </trkpt>
      <trkpt lat="41.40378" lon="9.16865">
        <ele>64.55</ele>
        <time>2014-06-03T19:33:07Z</time>
      </trkpt>
      <trkpt lat="41.40393" lon="9.16876">
        <ele>65.03</ele>
        <time>2014-06-03T19:33:08Z</time>
      </trkpt>
      <trkpt lat="41.40519" lon="9.16987">
        <ele>68.39</ele>
        <time>2014-06-03T19:33:17Z</time>
      </trkpt>
      <trkpt lat="41.4069" lon="9.17137">
        <ele>74.16</ele>
        <time>2014-06-03T19:33:31Z</time>
      </trkpt>
      <trkpt lat="41.40827" lon="9.17229">
        <ele>81.37</ele>
        <time>2014-06-03T19:33:41Z</time>
      </trkpt>
      <trkpt lat="41.40986" lon="9.17312">
        <ele>83.29</ele>
        <time>2014-06-03T19:33:52Z</time>
      </trkpt>
      <trkpt lat="41.41146" lon="9.17392">
        <ele>79.45</ele>
        <time>2014-06-03T19:34:04Z</time>
      </trkpt>
      <trkpt lat="41.41158" lon="9.17391">
        <ele>78</ele>
        <time>2014-06-03T19:34:05Z</time>
      </trkpt>
      <trkpt lat="41.41169" lon="9.17387">
        <ele>77.52</ele>
        <time>2014-06-03T19:34:06Z</time>
      </trkpt>
      <trkpt lat="41.4118" lon="9.17378">
        <ele>76.08</ele>
        <time>2014-06-03T19:34:07Z</time>
      </trkpt>
      <trkpt lat="41.41189" lon="9.17365">
        <ele>75.12</ele>
        <time>2014-06-03T19:34:08Z</time>
      </trkpt>
      <trkpt lat="41.41198" lon="9.17347">
        <ele>73.68</ele>
        <time>2014-06-03T19:34:09Z</time>
      </trkpt>
      <trkpt lat="41.41205" lon="9.17327">
        <ele>72.24</ele>
        <time>2014-06-03T19:34:10Z</time>
      </trkpt>
      <trkpt lat="41.41284" lon="9.1716">
        <ele>62.62</ele>
        <time>2014-06-03T19:34:20Z</time>
      </trkpt>
      <trkpt lat="41.4129" lon="9.17143">
        <ele>61.18</ele>
        <time>2014-06-03T19:34:21Z</time>
      </trkpt>
      <trkpt lat="41.41295" lon="9.17125">
        <ele>59.74</ele>
        <time>2014-06-03T19:34:22Z</time>
      </trkpt>
      <trkpt lat="41.41297" lon="9.17106">
        <ele>59.26</ele>
        <time>2014-06-03T19:34:23Z</time>
      </trkpt>
      <trkpt lat="41.41298" lon="9.17088">
        <ele>58.78</ele>
        <time>2014-06-03T19:34:24Z</time>
      </trkpt>
      <trkpt lat="41.41302" lon="9.17028">
        <ele>54.93</ele>
        <time>2014-06-03T19:34:28Z</time>
      </trkpt>
      <trkpt lat="41.41305" lon="9.17017">
        <ele>53.97</ele>
        <time>2014-06-03T19:34:29Z</time>
      </trkpt>
      <trkpt lat="41.41309" lon="9.17009">
        <ele>53.49</ele>
        <time>2014-06-03T19:34:30Z</time>
      </trkpt>
      <trkpt lat="41.41314" lon="9.17004">
        <ele>53.49</ele>
        <time>2014-06-03T19:34:31Z</time>
      </trkpt>
      <trkpt lat="41.4132" lon="9.17004">
        <ele>53.49</ele>
        <time>2014-06-03T19:34:32Z</time>
      </trkpt>
      <trkpt lat="41.41325" lon="9.17007">
        <ele>53.49</ele>
        <time>2014-06-03T19:34:33Z</time>
      </trkpt>
      <trkpt lat="41.41331" lon="9.17014">
        <ele>53.49</ele>
        <time>2014-06-03T19:34:34Z</time>
      </trkpt>
      <trkpt lat="41.41334" lon="9.17024">
        <ele>53.49</ele>
        <time>2014-06-03T19:34:35Z</time>
      </trkpt>
      <trkpt lat="41.41338" lon="9.17038">
        <ele>53.49</ele>
        <time>2014-06-03T19:34:36Z</time>
      </trkpt>
      <trkpt lat="41.41341" lon="9.17054">
        <ele>54.45</ele>
        <time>2014-06-03T19:34:37Z</time>
      </trkpt>
      <trkpt lat="41.41371" lon="9.17157">
        <ele>58.3</ele>
        <time>2014-06-03T19:34:43Z</time>
      </trkpt>
      <trkpt lat="41.41374" lon="9.17176">
        <ele>58.78</ele>
        <time>2014-06-03T19:34:44Z</time>
      </trkpt>
      <trkpt lat="41.41374" lon="9.17195">
        <ele>59.26</ele>
        <time>2014-06-03T19:34:45Z</time>
      </trkpt>
      <trkpt lat="41.4137" lon="9.17215">
        <ele>59.74</ele>
        <time>2014-06-03T19:34:46Z</time>
      </trkpt>
      <trkpt lat="41.41366" lon="9.17236">
        <ele>60.7</ele>
        <time>2014-06-03T19:34:47Z</time>
      </trkpt>
      <trkpt lat="41.41356" lon="9.17357">
        <ele>64.55</ele>
        <time>2014-06-03T19:34:53Z</time>
      </trkpt>
      <trkpt lat="41.41359" lon="9.17376">
        <ele>64.55</ele>
        <time>2014-06-03T19:34:54Z</time>
      </trkpt>
      <trkpt lat="41.41364" lon="9.17394">
        <ele>65.51</ele>
        <time>2014-06-03T19:34:55Z</time>
      </trkpt>
      <trkpt lat="41.4137" lon="9.17413">
        <ele>66.47</ele>
        <time>2014-06-03T19:34:56Z</time>
      </trkpt>
      <trkpt lat="41.41378" lon="9.17432">
        <ele>67.43</ele>
        <time>2014-06-03T19:34:57Z</time>
      </trkpt>
      <trkpt lat="41.41463" lon="9.17619">
        <ele>74.64</ele>
        <time>2014-06-03T19:35:07Z</time>
      </trkpt>
      <trkpt lat="41.41482" lon="9.17654">
        <ele>75.6</ele>
        <time>2014-06-03T19:35:09Z</time>
      </trkpt>
      <trkpt lat="41.41495" lon="9.17669">
        <ele>76.56</ele>
        <time>2014-06-03T19:35:10Z</time>
      </trkpt>
      <trkpt lat="41.41511" lon="9.17683">
        <ele>77.04</ele>
        <time>2014-06-03T19:35:11Z</time>
      </trkpt>
      <trkpt lat="41.41659" lon="9.17788">
        <ele>82.33</ele>
        <time>2014-06-03T19:35:21Z</time>
      </trkpt>
      <trkpt lat="41.41884" lon="9.17944">
        <ele>85.69</ele>
        <time>2014-06-03T19:35:38Z</time>
      </trkpt>
      <trkpt lat="41.42095" lon="9.18092">
        <ele>88.58</ele>
        <time>2014-06-03T19:35:53Z</time>
      </trkpt>
      <trkpt lat="41.4215" lon="9.18128">
        <ele>87.14</ele>
        <time>2014-06-03T19:35:57Z</time>
      </trkpt>
      <trkpt lat="41.42166" lon="9.18133">
        <ele>86.66</ele>
        <time>2014-06-03T19:35:58Z</time>
      </trkpt>
      <trkpt lat="41.42183" lon="9.18135">
        <ele>86.18</ele>
        <time>2014-06-03T19:35:59Z</time>
      </trkpt>
      <trkpt lat="41.422" lon="9.18136">
        <ele>85.21</ele>
        <time>2014-06-03T19:36:00Z</time>
      </trkpt>
      <trkpt lat="41.42217" lon="9.18135">
        <ele>84.25</ele>
        <time>2014-06-03T19:36:01Z</time>
      </trkpt>
      <trkpt lat="41.42279" lon="9.18133">
        <ele>79.45</ele>
        <time>2014-06-03T19:36:05Z</time>
      </trkpt>
      <trkpt lat="41.42295" lon="9.18128">
        <ele>78</ele>
        <time>2014-06-03T19:36:06Z</time>
      </trkpt>
      <trkpt lat="41.42309" lon="9.1812">
        <ele>77.04</ele>
        <time>2014-06-03T19:36:07Z</time>
      </trkpt>
      <trkpt lat="41.4235" lon="9.18092">
        <ele>74.64</ele>
        <time>2014-06-03T19:36:10Z</time>
      </trkpt>
      <trkpt lat="41.42362" lon="9.18089">
        <ele>73.68</ele>
        <time>2014-06-03T19:36:11Z</time>
      </trkpt>
      <trkpt lat="41.42375" lon="9.18091">
        <ele>73.2</ele>
        <time>2014-06-03T19:36:12Z</time>
      </trkpt>
      <trkpt lat="41.42386" lon="9.18099">
        <ele>72.24</ele>
        <time>2014-06-03T19:36:13Z</time>
      </trkpt>
      <trkpt lat="41.42397" lon="9.18109">
        <ele>71.76</ele>
        <time>2014-06-03T19:36:14Z</time>
      </trkpt>
      <trkpt lat="41.42408" lon="9.1812">
        <ele>71.76</ele>
        <time>2014-06-03T19:36:15Z</time>
      </trkpt>
      <trkpt lat="41.42513" lon="9.18188">
        <ele>66.95</ele>
        <time>2014-06-03T19:36:22Z</time>
      </trkpt>
      <trkpt lat="41.42578" lon="9.1822">
        <ele>63.58</ele>
        <time>2014-06-03T19:36:26Z</time>
      </trkpt>
      <trkpt lat="41.42593" lon="9.18232">
        <ele>62.62</ele>
        <time>2014-06-03T19:36:27Z</time>
      </trkpt>
      <trkpt lat="41.42607" lon="9.18246">
        <ele>61.66</ele>
        <time>2014-06-03T19:36:28Z</time>
      </trkpt>
      <trkpt lat="41.42679" lon="9.18364">
        <ele>55.89</ele>
        <time>2014-06-03T19:36:35Z</time>
      </trkpt>
      <trkpt lat="41.42684" lon="9.18382">
        <ele>54.93</ele>
        <time>2014-06-03T19:36:36Z</time>
      </trkpt>
      <trkpt lat="41.42685" lon="9.18401">
        <ele>53.97</ele>
        <time>2014-06-03T19:36:37Z</time>
      </trkpt>
      <trkpt lat="41.42682" lon="9.18422">
        <ele>53.97</ele>
        <time>2014-06-03T19:36:38Z</time>
      </trkpt>
      <trkpt lat="41.42679" lon="9.18442">
        <ele>52.05</ele>
        <time>2014-06-03T19:36:39Z</time>
      </trkpt>
      <trkpt lat="41.42677" lon="9.18461">
        <ele>49.16</ele>
        <time>2014-06-03T19:36:40Z</time>
      </trkpt>
      <trkpt lat="41.42678" lon="9.18481">
        <ele>48.68</ele>
        <time>2014-06-03T19:36:41Z</time>
      </trkpt>
      <trkpt lat="41.42684" lon="9.18501">
        <ele>48.2</ele>
        <time>2014-06-03T19:36:42Z</time>
      </trkpt>
      <trkpt lat="41.42692" lon="9.18522">
        <ele>47.24</ele>
        <time>2014-06-03T19:36:43Z</time>
      </trkpt>
      <trkpt lat="41.42701" lon="9.18543">
        <ele>46.28</ele>
        <time>2014-06-03T19:36:44Z</time>
      </trkpt>
      <trkpt lat="41.4278" lon="9.18707">
        <ele>39.07</ele>
        <time>2014-06-03T19:36:53Z</time>
      </trkpt>
      <trkpt lat="41.42791" lon="9.18719">
        <ele>39.07</ele>
        <time>2014-06-03T19:36:54Z</time>
      </trkpt>
      <trkpt lat="41.42804" lon="9.18727">
        <ele>38.59</ele>
        <time>2014-06-03T19:36:55Z</time>
      </trkpt>
      <trkpt lat="41.42819" lon="9.18732">
        <ele>38.59</ele>
        <time>2014-06-03T19:36:56Z</time>
      </trkpt>
      <trkpt lat="41.42848" lon="9.18741">
        <ele>38.11</ele>
        <time>2014-06-03T19:36:58Z</time>
      </trkpt>
      <trkpt lat="41.42862" lon="9.1875">
        <ele>37.63</ele>
        <time>2014-06-03T19:36:59Z</time>
      </trkpt>
      <trkpt lat="41.4294" lon="9.18798">
        <ele>35.71</ele>
        <time>2014-06-03T19:37:04Z</time>
      </trkpt>
      <trkpt lat="41.42958" lon="9.18803">
        <ele>35.71</ele>
        <time>2014-06-03T19:37:05Z</time>
      </trkpt>
      <trkpt lat="41.43143" lon="9.18846">
        <ele>27.53</ele>
        <time>2014-06-03T19:37:16Z</time>
      </trkpt>
      <trkpt lat="41.43158" lon="9.18855">
        <ele>27.05</ele>
        <time>2014-06-03T19:37:17Z</time>
      </trkpt>
      <trkpt lat="41.43174" lon="9.18866">
        <ele>26.57</ele>
        <time>2014-06-03T19:37:18Z</time>
      </trkpt>
      <trkpt lat="41.43191" lon="9.18881">
        <ele>25.61</ele>
        <time>2014-06-03T19:37:19Z</time>
      </trkpt>
      <trkpt lat="41.433" lon="9.18998">
        <ele>25.13</ele>
        <time>2014-06-03T19:37:25Z</time>
      </trkpt>
      <trkpt lat="41.43444" lon="9.19157">
        <ele>21.29</ele>
        <time>2014-06-03T19:37:32Z</time>
      </trkpt>
      <trkpt lat="41.43813" lon="9.19556">
        <ele>13.12</ele>
        <time>2014-06-03T19:37:50Z</time>
      </trkpt>
      <trkpt lat="41.44226" lon="9.19999">
        <ele>11.67</ele>
        <time>2014-06-03T19:38:10Z</time>
      </trkpt>
      <trkpt lat="41.44566" lon="9.20384">
        <ele>4.46</ele>
        <time>2014-06-03T19:38:27Z</time>
      </trkpt>
      <trkpt lat="41.44842" lon="9.20693">
        <ele>15.04</ele>
        <time>2014-06-03T19:38:41Z</time>
      </trkpt>
      <trkpt lat="41.45104" lon="9.20926">
        <ele>10.71</ele>
        <time>2014-06-03T19:38:53Z</time>
      </trkpt>
      <trkpt lat="41.45395" lon="9.21184">
        <ele>17.44</ele>
        <time>2014-06-03T19:39:06Z</time>
      </trkpt>
      <trkpt lat="41.45662" lon="9.21418">
        <ele>20.32</ele>
        <time>2014-06-03T19:39:18Z</time>
      </trkpt>
      <trkpt lat="41.46009" lon="9.21724">
        <ele>22.25</ele>
        <time>2014-06-03T19:39:34Z</time>
      </trkpt>
      <trkpt lat="41.46271" lon="9.21956">
        <ele>24.17</ele>
        <time>2014-06-03T19:39:46Z</time>
      </trkpt>
      <trkpt lat="41.46475" lon="9.22137">
        <ele>27.05</ele>
        <time>2014-06-03T19:39:56Z</time>
      </trkpt>
      <trkpt lat="41.46679" lon="9.22314">
        <ele>33.78</ele>
        <time>2014-06-03T19:40:06Z</time>
      </trkpt>
      <trkpt lat="41.46836" lon="9.22408">
        <ele>35.23</ele>
        <time>2014-06-03T19:40:13Z</time>
      </trkpt>
      <trkpt lat="41.47157" lon="9.2259">
        <ele>32.34</ele>
        <time>2014-06-03T19:40:27Z</time>
      </trkpt>
      <trkpt lat="41.47309" lon="9.2268">
        <ele>38.11</ele>
        <time>2014-06-03T19:40:35Z</time>
      </trkpt>
      <trkpt lat="41.47324" lon="9.22696">
        <ele>38.59</ele>
        <time>2014-06-03T19:40:36Z</time>
      </trkpt>
      <trkpt lat="41.47422" lon="9.22824">
        <ele>38.59</ele>
        <time>2014-06-03T19:40:42Z</time>
      </trkpt>
      <trkpt lat="41.47691" lon="9.23173">
        <ele>40.03</ele>
        <time>2014-06-03T19:40:57Z</time>
      </trkpt>
      <trkpt lat="41.47883" lon="9.23422">
        <ele>40.99</ele>
        <time>2014-06-03T19:41:08Z</time>
      </trkpt>
      <trkpt lat="41.48097" lon="9.23703">
        <ele>47.24</ele>
        <time>2014-06-03T19:41:21Z</time>
      </trkpt>
      <trkpt lat="41.48201" lon="9.23828">
        <ele>53.01</ele>
        <time>2014-06-03T19:41:28Z</time>
      </trkpt>
      <trkpt lat="41.48218" lon="9.2384">
        <ele>53.49</ele>
        <time>2014-06-03T19:41:29Z</time>
      </trkpt>
      <trkpt lat="41.48383" lon="9.23946">
        <ele>56.86</ele>
        <time>2014-06-03T19:41:37Z</time>
      </trkpt>
      <trkpt lat="41.48685" lon="9.24143">
        <ele>62.62</ele>
        <time>2014-06-03T19:41:52Z</time>
      </trkpt>
      <trkpt lat="41.48838" lon="9.24243">
        <ele>67.91</ele>
        <time>2014-06-03T19:42:00Z</time>
      </trkpt>
      <trkpt lat="41.48868" lon="9.24256">
        <ele>68.87</ele>
        <time>2014-06-03T19:42:02Z</time>
      </trkpt>
      <trkpt lat="41.48883" lon="9.24259">
        <ele>69.35</ele>
        <time>2014-06-03T19:42:03Z</time>
      </trkpt>
      <trkpt lat="41.48984" lon="9.24279">
        <ele>69.83</ele>
        <time>2014-06-03T19:42:11Z</time>
      </trkpt>
      <trkpt lat="41.49048" lon="9.24332">
        <ele>70.31</ele>
        <time>2014-06-03T19:42:17Z</time>
      </trkpt>
      <trkpt lat="41.49056" lon="9.24345">
        <ele>70.31</ele>
        <time>2014-06-03T19:42:18Z</time>
      </trkpt>
      <trkpt lat="41.49061" lon="9.24359">
        <ele>70.31</ele>
        <time>2014-06-03T19:42:19Z</time>
      </trkpt>
      <trkpt lat="41.49064" lon="9.24376">
        <ele>70.31</ele>
        <time>2014-06-03T19:42:20Z</time>
      </trkpt>
      <trkpt lat="41.49066" lon="9.24394">
        <ele>70.31</ele>
        <time>2014-06-03T19:42:21Z</time>
      </trkpt>
      <trkpt lat="41.49067" lon="9.24413">
        <ele>69.83</ele>
        <time>2014-06-03T19:42:22Z</time>
      </trkpt>
      <trkpt lat="41.49077" lon="9.24487">
        <ele>70.31</ele>
        <time>2014-06-03T19:42:26Z</time>
      </trkpt>
      <trkpt lat="41.49082" lon="9.24504">
        <ele>69.83</ele>
        <time>2014-06-03T19:42:27Z</time>
      </trkpt>
      <trkpt lat="41.49089" lon="9.2452">
        <ele>69.83</ele>
        <time>2014-06-03T19:42:28Z</time>
      </trkpt>
      <trkpt lat="41.49098" lon="9.24534">
        <ele>69.35</ele>
        <time>2014-06-03T19:42:29Z</time>
      </trkpt>
      <trkpt lat="41.49108" lon="9.24546">
        <ele>69.35</ele>
        <time>2014-06-03T19:42:30Z</time>
      </trkpt>
      <trkpt lat="41.4912" lon="9.24556">
        <ele>68.39</ele>
        <time>2014-06-03T19:42:31Z</time>
      </trkpt>
      <trkpt lat="41.49132" lon="9.24563">
        <ele>67.91</ele>
        <time>2014-06-03T19:42:32Z</time>
      </trkpt>
      <trkpt lat="41.49145" lon="9.24568">
        <ele>67.91</ele>
        <time>2014-06-03T19:42:33Z</time>
      </trkpt>
      <trkpt lat="41.49158" lon="9.24572">
        <ele>67.43</ele>
        <time>2014-06-03T19:42:34Z</time>
      </trkpt>
      <trkpt lat="41.49172" lon="9.24574">
        <ele>66.95</ele>
        <time>2014-06-03T19:42:35Z</time>
      </trkpt>
      <trkpt lat="41.49304" lon="9.24606">
        <ele>63.58</ele>
        <time>2014-06-03T19:42:44Z</time>
      </trkpt>
      <trkpt lat="41.49317" lon="9.24613">
        <ele>63.58</ele>
        <time>2014-06-03T19:42:45Z</time>
      </trkpt>
      <trkpt lat="41.4933" lon="9.24623">
        <ele>63.58</ele>
        <time>2014-06-03T19:42:46Z</time>
      </trkpt>
      <trkpt lat="41.4944" lon="9.24713">
        <ele>62.14</ele>
        <time>2014-06-03T19:42:53Z</time>
      </trkpt>
      <trkpt lat="41.49758" lon="9.24975">
        <ele>52.05</ele>
        <time>2014-06-03T19:43:10Z</time>
      </trkpt>
      <trkpt lat="41.49978" lon="9.25142">
        <ele>44.84</ele>
        <time>2014-06-03T19:43:22Z</time>
      </trkpt>
      <trkpt lat="41.50175" lon="9.25223">
        <ele>39.55</ele>
        <time>2014-06-03T19:43:31Z</time>
      </trkpt>
      <trkpt lat="41.50516" lon="9.25354">
        <ele>33.78</ele>
        <time>2014-06-03T19:43:47Z</time>
      </trkpt>
      <trkpt lat="41.5073" lon="9.25436">
        <ele>25.61</ele>
        <time>2014-06-03T19:43:58Z</time>
      </trkpt>
      <trkpt lat="41.50933" lon="9.25515">
        <ele>19.84</ele>
        <time>2014-06-03T19:44:10Z</time>
      </trkpt>
      <trkpt lat="41.51077" lon="9.25569">
        <ele>16.48</ele>
        <time>2014-06-03T19:44:18Z</time>
      </trkpt>
      <trkpt lat="41.51382" lon="9.25685">
        <ele>13.12</ele>
        <time>2014-06-03T19:44:33Z</time>
      </trkpt>
      <trkpt lat="41.51684" lon="9.25801">
        <ele>8.79</ele>
        <time>2014-06-03T19:44:46Z</time>
      </trkpt>
      <trkpt lat="41.52091" lon="9.25957">
        <ele>4.46</ele>
        <time>2014-06-03T19:45:03Z</time>
      </trkpt>
      <trkpt lat="41.5246" lon="9.26098">
        <ele>3.02</ele>
        <time>2014-06-03T19:45:18Z</time>
      </trkpt>
      <trkpt lat="41.52718" lon="9.26197">
        <ele>3.98</ele>
        <time>2014-06-03T19:45:29Z</time>
      </trkpt>
      <trkpt lat="41.52888" lon="9.26261">
        <ele>3.98</ele>
        <time>2014-06-03T19:45:37Z</time>
      </trkpt>
      <trkpt lat="41.53087" lon="9.26337">
        <ele>3.5</ele>
        <time>2014-06-03T19:45:46Z</time>
      </trkpt>
      <trkpt lat="41.53319" lon="9.26425">
        <ele>8.79</ele>
        <time>2014-06-03T19:45:56Z</time>
      </trkpt>
      <trkpt lat="41.53669" lon="9.2656">
        <ele>10.71</ele>
        <time>2014-06-03T19:46:12Z</time>
      </trkpt>
      <trkpt lat="41.53953" lon="9.26668">
        <ele>16.96</ele>
        <time>2014-06-03T19:46:27Z</time>
      </trkpt>
      <trkpt lat="41.54124" lon="9.26733">
        <ele>21.29</ele>
        <time>2014-06-03T19:46:36Z</time>
      </trkpt>
      <trkpt lat="41.54318" lon="9.26805">
        <ele>27.53</ele>
        <time>2014-06-03T19:46:45Z</time>
      </trkpt>
      <trkpt lat="41.54467" lon="9.26853">
        <ele>27.05</ele>
        <time>2014-06-03T19:46:54Z</time>
      </trkpt>
      <trkpt lat="41.54612" lon="9.26894">
        <ele>23.21</ele>
        <time>2014-06-03T19:47:05Z</time>
      </trkpt>
      <trkpt lat="41.54666" lon="9.26907">
        <ele>22.73</ele>
        <time>2014-06-03T19:47:11Z</time>
      </trkpt>
      <trkpt lat="41.54673" lon="9.2691">
        <ele>22.25</ele>
        <time>2014-06-03T19:47:12Z</time>
      </trkpt>
      <trkpt lat="41.547" lon="9.26921">
        <ele>22.25</ele>
        <time>2014-06-03T19:47:15Z</time>
      </trkpt>
      <trkpt lat="41.54786" lon="9.26943">
        <ele>24.17</ele>
        <time>2014-06-03T19:47:20Z</time>
      </trkpt>
      <trkpt lat="41.55007" lon="9.27008">
        <ele>22.73</ele>
        <time>2014-06-03T19:47:30Z</time>
      </trkpt>
      <trkpt lat="41.55257" lon="9.27079">
        <ele>26.09</ele>
        <time>2014-06-03T19:47:42Z</time>
      </trkpt>
      <trkpt lat="41.55421" lon="9.27124">
        <ele>24.65</ele>
        <time>2014-06-03T19:47:50Z</time>
      </trkpt>
      <trkpt lat="41.55627" lon="9.27186">
        <ele>19.36</ele>
        <time>2014-06-03T19:47:59Z</time>
      </trkpt>
      <trkpt lat="41.55857" lon="9.27253">
        <ele>23.21</ele>
        <time>2014-06-03T19:48:09Z</time>
      </trkpt>
      <trkpt lat="41.56036" lon="9.27287">
        <ele>21.77</ele>
        <time>2014-06-03T19:48:18Z</time>
      </trkpt>
      <trkpt lat="41.56283" lon="9.27318">
        <ele>13.12</ele>
        <time>2014-06-03T19:48:31Z</time>
      </trkpt>
      <trkpt lat="41.56458" lon="9.27339">
        <ele>8.79</ele>
        <time>2014-06-03T19:48:39Z</time>
      </trkpt>
      <trkpt lat="41.5664" lon="9.27362">
        <ele>3.98</ele>
        <time>2014-06-03T19:48:49Z</time>
      </trkpt>
      <trkpt lat="41.56898" lon="9.27395">
        <ele>1.58</ele>
        <time>2014-06-03T19:49:04Z</time>
      </trkpt>
      <trkpt lat="41.57117" lon="9.27424">
        <ele>1.58</ele>
        <time>2014-06-03T19:49:18Z</time>
      </trkpt>
      <trkpt lat="41.57167" lon="9.27433">
        <ele>2.06</ele>
        <time>2014-06-03T19:49:23Z</time>
      </trkpt>
      <trkpt lat="41.57175" lon="9.27437">
        <ele>2.06</ele>
        <time>2014-06-03T19:49:24Z</time>
      </trkpt>
      <trkpt lat="41.57201" lon="9.27441">
        <ele>2.54</ele>
        <time>2014-06-03T19:49:27Z</time>
      </trkpt>
      <trkpt lat="41.57222" lon="9.27436">
        <ele>2.06</ele>
        <time>2014-06-03T19:49:29Z</time>
      </trkpt>
      <trkpt lat="41.57268" lon="9.27439">
        <ele>2.06</ele>
        <time>2014-06-03T19:49:32Z</time>
      </trkpt>
      <trkpt lat="41.57431" lon="9.27459">
        <ele>4.94</ele>
        <time>2014-06-03T19:49:41Z</time>
      </trkpt>
      <trkpt lat="41.57611" lon="9.2748">
        <ele>2.54</ele>
        <time>2014-06-03T19:49:52Z</time>
      </trkpt>
      <trkpt lat="41.577" lon="9.27491">
        <ele>2.06</ele>
        <time>2014-06-03T19:50:00Z</time>
      </trkpt>
      <trkpt lat="41.57708" lon="9.27495">
        <ele>1.58</ele>
        <time>2014-06-03T19:50:01Z</time>
      </trkpt>
      <trkpt lat="41.57714" lon="9.275">
        <ele>1.58</ele>
        <time>2014-06-03T19:50:02Z</time>
      </trkpt>
      <trkpt lat="41.57719" lon="9.27506">
        <ele>2.06</ele>
        <time>2014-06-03T19:50:03Z</time>
      </trkpt>
      <trkpt lat="41.57724" lon="9.27513">
        <ele>2.06</ele>
        <time>2014-06-03T19:50:04Z</time>
      </trkpt>
      <trkpt lat="41.57736" lon="9.2752">
        <ele>1.1</ele>
        <time>2014-06-03T19:50:06Z</time>
      </trkpt>
      <trkpt lat="41.57743" lon="9.2752">
        <ele>1.1</ele>
        <time>2014-06-03T19:50:07Z</time>
      </trkpt>
      <trkpt lat="41.5775" lon="9.27518">
        <ele>1.1</ele>
        <time>2014-06-03T19:50:08Z</time>
      </trkpt>
      <trkpt lat="41.57757" lon="9.27512">
        <ele>1.1</ele>
        <time>2014-06-03T19:50:09Z</time>
      </trkpt>
      <trkpt lat="41.57762" lon="9.27504">
        <ele>1.58</ele>
        <time>2014-06-03T19:50:10Z</time>
      </trkpt>
      <trkpt lat="41.57764" lon="9.27493">
        <ele>1.58</ele>
        <time>2014-06-03T19:50:11Z</time>
      </trkpt>
      <trkpt lat="41.57765" lon="9.27481">
        <ele>2.06</ele>
        <time>2014-06-03T19:50:12Z</time>
      </trkpt>
      <trkpt lat="41.57762" lon="9.27469">
        <ele>1.58</ele>
        <time>2014-06-03T19:50:13Z</time>
      </trkpt>
      <trkpt lat="41.57759" lon="9.27457">
        <ele>1.58</ele>
        <time>2014-06-03T19:50:14Z</time>
      </trkpt>
      <trkpt lat="41.57758" lon="9.27417">
        <ele>1.1</ele>
        <time>2014-06-03T19:50:17Z</time>
      </trkpt>
      <trkpt lat="41.57763" lon="9.27403">
        <ele>0.62</ele>
        <time>2014-06-03T19:50:18Z</time>
      </trkpt>
      <trkpt lat="41.57771" lon="9.2739">
        <ele>0.62</ele>
        <time>2014-06-03T19:50:19Z</time>
      </trkpt>
      <trkpt lat="41.57782" lon="9.27378">
        <ele>0.14</ele>
        <time>2014-06-03T19:50:20Z</time>
      </trkpt>
      <trkpt lat="41.57793" lon="9.27367">
        <ele>0.14</ele>
        <time>2014-06-03T19:50:21Z</time>
      </trkpt>
      <trkpt lat="41.57807" lon="9.27359">
        <ele>0.62</ele>
        <time>2014-06-03T19:50:22Z</time>
      </trkpt>
      <trkpt lat="41.57823" lon="9.27351">
        <ele>0.14</ele>
        <time>2014-06-03T19:50:23Z</time>
      </trkpt>
      <trkpt lat="41.5784" lon="9.27345">
        <ele>0.14</ele>
        <time>2014-06-03T19:50:24Z</time>
      </trkpt>
      <trkpt lat="41.57967" lon="9.2727">
        <ele>1.58</ele>
        <time>2014-06-03T19:50:32Z</time>
      </trkpt>
      <trkpt lat="41.58062" lon="9.27124">
        <ele>3.5</ele>
        <time>2014-06-03T19:50:40Z</time>
      </trkpt>
      <trkpt lat="41.58149" lon="9.26921">
        <ele>10.23</ele>
        <time>2014-06-03T19:50:49Z</time>
      </trkpt>
      <trkpt lat="41.58268" lon="9.26656">
        <ele>15.52</ele>
        <time>2014-06-03T19:51:02Z</time>
      </trkpt>
      <trkpt lat="41.58285" lon="9.26626">
        <ele>16.96</ele>
        <time>2014-06-03T19:51:05Z</time>
      </trkpt>
      <trkpt lat="41.58291" lon="9.2662">
        <ele>16.96</ele>
        <time>2014-06-03T19:51:06Z</time>
      </trkpt>
      <trkpt lat="41.58297" lon="9.26616">
        <ele>16.96</ele>
        <time>2014-06-03T19:51:07Z</time>
      </trkpt>
      <trkpt lat="41.5831" lon="9.26605">
        <ele>17.92</ele>
        <time>2014-06-03T19:51:09Z</time>
      </trkpt>
      <trkpt lat="41.58314" lon="9.26597">
        <ele>17.92</ele>
        <time>2014-06-03T19:51:10Z</time>
      </trkpt>
      <trkpt lat="41.58316" lon="9.26587">
        <ele>17.44</ele>
        <time>2014-06-03T19:51:11Z</time>
      </trkpt>
      <trkpt lat="41.58325" lon="9.26561">
        <ele>16.96</ele>
        <time>2014-06-03T19:51:13Z</time>
      </trkpt>
      <trkpt lat="41.58332" lon="9.26544">
        <ele>17.44</ele>
        <time>2014-06-03T19:51:14Z</time>
      </trkpt>
      <trkpt lat="41.58342" lon="9.26528">
        <ele>17.44</ele>
        <time>2014-06-03T19:51:15Z</time>
      </trkpt>
      <trkpt lat="41.58572" lon="9.26312">
        <ele>21.77</ele>
        <time>2014-06-03T19:51:29Z</time>
      </trkpt>
      <trkpt lat="41.58734" lon="9.26258">
        <ele>23.69</ele>
        <time>2014-06-03T19:51:36Z</time>
      </trkpt>
      <trkpt lat="41.58885" lon="9.26263">
        <ele>26.09</ele>
        <time>2014-06-03T19:51:42Z</time>
      </trkpt>
      <trkpt lat="41.59025" lon="9.26311">
        <ele>29.46</ele>
        <time>2014-06-03T19:51:49Z</time>
      </trkpt>
      <trkpt lat="41.59167" lon="9.2639">
        <ele>32.34</ele>
        <time>2014-06-03T19:51:57Z</time>
      </trkpt>
      <trkpt lat="41.59219" lon="9.26421">
        <ele>32.82</ele>
        <time>2014-06-03T19:52:02Z</time>
      </trkpt>
      <trkpt lat="41.59225" lon="9.26427">
        <ele>32.82</ele>
        <time>2014-06-03T19:52:03Z</time>
      </trkpt>
      <trkpt lat="41.5923" lon="9.26434">
        <ele>32.34</ele>
        <time>2014-06-03T19:52:04Z</time>
      </trkpt>
      <trkpt lat="41.59233" lon="9.2644">
        <ele>32.82</ele>
        <time>2014-06-03T19:52:05Z</time>
      </trkpt>
      <trkpt lat="41.59237" lon="9.26447">
        <ele>32.82</ele>
        <time>2014-06-03T19:52:06Z</time>
      </trkpt>
      <trkpt lat="41.59242" lon="9.26452">
        <ele>32.82</ele>
        <time>2014-06-03T19:52:07Z</time>
      </trkpt>
      <trkpt lat="41.59246" lon="9.26454">
        <ele>30.9</ele>
        <time>2014-06-03T19:52:08Z</time>
      </trkpt>
      <trkpt lat="41.59253" lon="9.26454">
        <ele>29.94</ele>
        <time>2014-06-03T19:52:09Z</time>
      </trkpt>
      <trkpt lat="41.59281" lon="9.26457">
        <ele>28.98</ele>
        <time>2014-06-03T19:52:12Z</time>
      </trkpt>
      <trkpt lat="41.59294" lon="9.26463">
        <ele>28.5</ele>
        <time>2014-06-03T19:52:13Z</time>
      </trkpt>
      <trkpt lat="41.59405" lon="9.26525">
        <ele>26.09</ele>
        <time>2014-06-03T19:52:19Z</time>
      </trkpt>
      <trkpt lat="41.59628" lon="9.26634">
        <ele>17.92</ele>
        <time>2014-06-03T19:52:30Z</time>
      </trkpt>
      <trkpt lat="41.59755" lon="9.26686">
        <ele>11.19</ele>
        <time>2014-06-03T19:52:38Z</time>
      </trkpt>
      <trkpt lat="41.59778" lon="9.26695">
        <ele>10.71</ele>
        <time>2014-06-03T19:52:40Z</time>
      </trkpt>
      <trkpt lat="41.59787" lon="9.26699">
        <ele>11.19</ele>
        <time>2014-06-03T19:52:41Z</time>
      </trkpt>
      <trkpt lat="41.59795" lon="9.26706">
        <ele>11.19</ele>
        <time>2014-06-03T19:52:42Z</time>
      </trkpt>
      <trkpt lat="41.59823" lon="9.26719">
        <ele>12.63</ele>
        <time>2014-06-03T19:52:45Z</time>
      </trkpt>
      <trkpt lat="41.59836" lon="9.26721">
        <ele>13.12</ele>
        <time>2014-06-03T19:52:46Z</time>
      </trkpt>
      <trkpt lat="41.59851" lon="9.26726">
        <ele>13.12</ele>
        <time>2014-06-03T19:52:47Z</time>
      </trkpt>
      <trkpt lat="41.59977" lon="9.2678">
        <ele>11.19</ele>
        <time>2014-06-03T19:52:54Z</time>
      </trkpt>
      <trkpt lat="41.60128" lon="9.26855">
        <ele>12.63</ele>
        <time>2014-06-03T19:53:03Z</time>
      </trkpt>
      <trkpt lat="41.6016" lon="9.26873">
        <ele>12.63</ele>
        <time>2014-06-03T19:53:06Z</time>
      </trkpt>
      <trkpt lat="41.60168" lon="9.2688">
        <ele>12.63</ele>
        <time>2014-06-03T19:53:07Z</time>
      </trkpt>
      <trkpt lat="41.60175" lon="9.26888">
        <ele>12.63</ele>
        <time>2014-06-03T19:53:08Z</time>
      </trkpt>
      <trkpt lat="41.6018" lon="9.26897">
        <ele>12.15</ele>
        <time>2014-06-03T19:53:09Z</time>
      </trkpt>
      <trkpt lat="41.60185" lon="9.26906">
        <ele>12.15</ele>
        <time>2014-06-03T19:53:10Z</time>
      </trkpt>
      <trkpt lat="41.60197" lon="9.26919">
        <ele>11.67</ele>
        <time>2014-06-03T19:53:12Z</time>
      </trkpt>
      <trkpt lat="41.60205" lon="9.26924">
        <ele>11.67</ele>
        <time>2014-06-03T19:53:13Z</time>
      </trkpt>
      <trkpt lat="41.60225" lon="9.26938">
        <ele>12.15</ele>
        <time>2014-06-03T19:53:15Z</time>
      </trkpt>
      <trkpt lat="41.60236" lon="9.26949">
        <ele>11.67</ele>
        <time>2014-06-03T19:53:16Z</time>
      </trkpt>
      <trkpt lat="41.60319" lon="9.2706">
        <ele>11.19</ele>
        <time>2014-06-03T19:53:22Z</time>
      </trkpt>
      <trkpt lat="41.60402" lon="9.2724">
        <ele>8.79</ele>
        <time>2014-06-03T19:53:29Z</time>
      </trkpt>
      <trkpt lat="41.60449" lon="9.27431">
        <ele>8.79</ele>
        <time>2014-06-03T19:53:36Z</time>
      </trkpt>
      <trkpt lat="41.60506" lon="9.27578">
        <ele>5.42</ele>
        <time>2014-06-03T19:53:43Z</time>
      </trkpt>
      <trkpt lat="41.60543" lon="9.27648">
        <ele>4.94</ele>
        <time>2014-06-03T19:53:48Z</time>
      </trkpt>
      <trkpt lat="41.60549" lon="9.27668">
        <ele>3.98</ele>
        <time>2014-06-03T19:53:50Z</time>
      </trkpt>
      <trkpt lat="41.60549" lon="9.27676">
        <ele>3.98</ele>
        <time>2014-06-03T19:53:51Z</time>
      </trkpt>
      <trkpt lat="41.60547" lon="9.27685">
        <ele>3.5</ele>
        <time>2014-06-03T19:53:52Z</time>
      </trkpt>
      <trkpt lat="41.60545" lon="9.27694">
        <ele>3.02</ele>
        <time>2014-06-03T19:53:53Z</time>
      </trkpt>
      <trkpt lat="41.6054" lon="9.27703">
        <ele>3.02</ele>
        <time>2014-06-03T19:53:54Z</time>
      </trkpt>
      <trkpt lat="41.60536" lon="9.27712">
        <ele>3.02</ele>
        <time>2014-06-03T19:53:55Z</time>
      </trkpt>
      <trkpt lat="41.60532" lon="9.27721">
        <ele>2.54</ele>
        <time>2014-06-03T19:53:56Z</time>
      </trkpt>
      <trkpt lat="41.60532" lon="9.2773">
        <ele>3.02</ele>
        <time>2014-06-03T19:53:57Z</time>
      </trkpt>
      <trkpt lat="41.60534" lon="9.27739">
        <ele>3.98</ele>
        <time>2014-06-03T19:53:58Z</time>
      </trkpt>
      <trkpt lat="41.60539" lon="9.27747">
        <ele>3.98</ele>
        <time>2014-06-03T19:53:59Z</time>
      </trkpt>
      <trkpt lat="41.60546" lon="9.27753">
        <ele>4.94</ele>
        <time>2014-06-03T19:54:00Z</time>
      </trkpt>
      <trkpt lat="41.60553" lon="9.27756">
        <ele>4.46</ele>
        <time>2014-06-03T19:54:01Z</time>
      </trkpt>
      <trkpt lat="41.60562" lon="9.27756">
        <ele>5.42</ele>
        <time>2014-06-03T19:54:02Z</time>
      </trkpt>
      <trkpt lat="41.60571" lon="9.27754">
        <ele>5.42</ele>
        <time>2014-06-03T19:54:03Z</time>
      </trkpt>
      <trkpt lat="41.6058" lon="9.27752">
        <ele>5.42</ele>
        <time>2014-06-03T19:54:04Z</time>
      </trkpt>
      <trkpt lat="41.60589" lon="9.27752">
        <ele>4.94</ele>
        <time>2014-06-03T19:54:05Z</time>
      </trkpt>
      <trkpt lat="41.606" lon="9.27754">
        <ele>4.46</ele>
        <time>2014-06-03T19:54:06Z</time>
      </trkpt>
      <trkpt lat="41.60612" lon="9.2776">
        <ele>4.46</ele>
        <time>2014-06-03T19:54:07Z</time>
      </trkpt>
      <trkpt lat="41.60699" lon="9.2779">
        <ele>5.42</ele>
        <time>2014-06-03T19:54:13Z</time>
      </trkpt>
      <trkpt lat="41.60932" lon="9.27853">
        <ele>8.31</ele>
        <time>2014-06-03T19:54:30Z</time>
      </trkpt>
      <trkpt lat="41.61202" lon="9.27927">
        <ele>13.6</ele>
        <time>2014-06-03T19:54:51Z</time>
      </trkpt>
      <trkpt lat="41.61413" lon="9.27986">
        <ele>22.25</ele>
        <time>2014-06-03T19:55:07Z</time>
      </trkpt>
      <trkpt lat="41.61537" lon="9.28022">
        <ele>22.73</ele>
        <time>2014-06-03T19:55:16Z</time>
      </trkpt>
      <trkpt lat="41.61674" lon="9.28106">
        <ele>25.13</ele>
        <time>2014-06-03T19:55:24Z</time>
      </trkpt>
      <trkpt lat="41.61855" lon="9.28223">
        <ele>28.98</ele>
        <time>2014-06-03T19:55:33Z</time>
      </trkpt>
      <trkpt lat="41.62109" lon="9.28385">
        <ele>39.07</ele>
        <time>2014-06-03T19:55:45Z</time>
      </trkpt>
      <trkpt lat="41.62253" lon="9.28476">
        <ele>45.32</ele>
        <time>2014-06-03T19:55:53Z</time>
      </trkpt>
      <trkpt lat="41.62295" lon="9.28512">
        <ele>47.24</ele>
        <time>2014-06-03T19:55:56Z</time>
      </trkpt>
      <trkpt lat="41.62304" lon="9.28528">
        <ele>47.72</ele>
        <time>2014-06-03T19:55:57Z</time>
      </trkpt>
      <trkpt lat="41.62311" lon="9.28546">
        <ele>47.72</ele>
        <time>2014-06-03T19:55:58Z</time>
      </trkpt>
      <trkpt lat="41.62315" lon="9.28564">
        <ele>48.2</ele>
        <time>2014-06-03T19:55:59Z</time>
      </trkpt>
      <trkpt lat="41.62316" lon="9.28584">
        <ele>49.16</ele>
        <time>2014-06-03T19:56:00Z</time>
      </trkpt>
      <trkpt lat="41.62314" lon="9.28603">
        <ele>49.65</ele>
        <time>2014-06-03T19:56:01Z</time>
      </trkpt>
      <trkpt lat="41.6231" lon="9.28623">
        <ele>50.13</ele>
        <time>2014-06-03T19:56:02Z</time>
      </trkpt>
      <trkpt lat="41.62305" lon="9.28642">
        <ele>51.57</ele>
        <time>2014-06-03T19:56:03Z</time>
      </trkpt>
      <trkpt lat="41.62285" lon="9.28734">
        <ele>53.49</ele>
        <time>2014-06-03T19:56:08Z</time>
      </trkpt>
      <trkpt lat="41.62285" lon="9.28752">
        <ele>53.97</ele>
        <time>2014-06-03T19:56:09Z</time>
      </trkpt>
      <trkpt lat="41.62286" lon="9.2877">
        <ele>54.45</ele>
        <time>2014-06-03T19:56:10Z</time>
      </trkpt>
      <trkpt lat="41.62291" lon="9.28786">
        <ele>54.45</ele>
        <time>2014-06-03T19:56:11Z</time>
      </trkpt>
      <trkpt lat="41.62297" lon="9.28802">
        <ele>54.93</ele>
        <time>2014-06-03T19:56:12Z</time>
      </trkpt>
      <trkpt lat="41.62306" lon="9.28818">
        <ele>55.41</ele>
        <time>2014-06-03T19:56:13Z</time>
      </trkpt>
      <trkpt lat="41.62316" lon="9.28832">
        <ele>55.89</ele>
        <time>2014-06-03T19:56:14Z</time>
      </trkpt>
      <trkpt lat="41.62326" lon="9.28846">
        <ele>56.37</ele>
        <time>2014-06-03T19:56:15Z</time>
      </trkpt>
      <trkpt lat="41.62383" lon="9.2891">
        <ele>60.22</ele>
        <time>2014-06-03T19:56:22Z</time>
      </trkpt>
      <trkpt lat="41.62389" lon="9.28918">
        <ele>60.7</ele>
        <time>2014-06-03T19:56:23Z</time>
      </trkpt>
      <trkpt lat="41.62393" lon="9.28926">
        <ele>61.18</ele>
        <time>2014-06-03T19:56:24Z</time>
      </trkpt>
      <trkpt lat="41.62397" lon="9.28935">
        <ele>61.66</ele>
        <time>2014-06-03T19:56:25Z</time>
      </trkpt>
      <trkpt lat="41.62398" lon="9.28945">
        <ele>61.66</ele>
        <time>2014-06-03T19:56:26Z</time>
      </trkpt>
      <trkpt lat="41.62398" lon="9.28957">
        <ele>62.14</ele>
        <time>2014-06-03T19:56:27Z</time>
      </trkpt>
      <trkpt lat="41.62395" lon="9.28969">
        <ele>62.62</ele>
        <time>2014-06-03T19:56:28Z</time>
      </trkpt>
      <trkpt lat="41.62391" lon="9.28982">
        <ele>63.1</ele>
        <time>2014-06-03T19:56:29Z</time>
      </trkpt>
      <trkpt lat="41.62383" lon="9.28996">
        <ele>64.07</ele>
        <time>2014-06-03T19:56:30Z</time>
      </trkpt>
      <trkpt lat="41.62374" lon="9.29011">
        <ele>65.03</ele>
        <time>2014-06-03T19:56:31Z</time>
      </trkpt>
      <trkpt lat="41.62366" lon="9.29026">
        <ele>65.03</ele>
        <time>2014-06-03T19:56:32Z</time>
      </trkpt>
      <trkpt lat="41.62358" lon="9.29042">
        <ele>65.99</ele>
        <time>2014-06-03T19:56:33Z</time>
      </trkpt>
      <trkpt lat="41.62298" lon="9.29211">
        <ele>63.58</ele>
        <time>2014-06-03T19:56:41Z</time>
      </trkpt>
      <trkpt lat="41.62262" lon="9.29334">
        <ele>58.3</ele>
        <time>2014-06-03T19:56:47Z</time>
      </trkpt>
      <trkpt lat="41.6226" lon="9.29355">
        <ele>56.86</ele>
        <time>2014-06-03T19:56:48Z</time>
      </trkpt>
      <trkpt lat="41.62259" lon="9.29375">
        <ele>55.41</ele>
        <time>2014-06-03T19:56:49Z</time>
      </trkpt>
      <trkpt lat="41.6226" lon="9.29396">
        <ele>53.97</ele>
        <time>2014-06-03T19:56:50Z</time>
      </trkpt>
      <trkpt lat="41.62262" lon="9.29417">
        <ele>52.53</ele>
        <time>2014-06-03T19:56:51Z</time>
      </trkpt>
      <trkpt lat="41.62266" lon="9.29437">
        <ele>51.09</ele>
        <time>2014-06-03T19:56:52Z</time>
      </trkpt>
      <trkpt lat="41.62272" lon="9.29457">
        <ele>49.65</ele>
        <time>2014-06-03T19:56:53Z</time>
      </trkpt>
      <trkpt lat="41.62279" lon="9.29476">
        <ele>47.72</ele>
        <time>2014-06-03T19:56:54Z</time>
      </trkpt>
      <trkpt lat="41.62288" lon="9.29493">
        <ele>46.28</ele>
        <time>2014-06-03T19:56:55Z</time>
      </trkpt>
      <trkpt lat="41.62299" lon="9.2951">
        <ele>44.36</ele>
        <time>2014-06-03T19:56:56Z</time>
      </trkpt>
      <trkpt lat="41.6231" lon="9.29525">
        <ele>43.4</ele>
        <time>2014-06-03T19:56:57Z</time>
      </trkpt>
      <trkpt lat="41.62322" lon="9.29538">
        <ele>42.44</ele>
        <time>2014-06-03T19:56:58Z</time>
      </trkpt>
      <trkpt lat="41.62336" lon="9.29549">
        <ele>41.47</ele>
        <time>2014-06-03T19:56:59Z</time>
      </trkpt>
      <trkpt lat="41.6235" lon="9.29559">
        <ele>40.03</ele>
        <time>2014-06-03T19:57:00Z</time>
      </trkpt>
      <trkpt lat="41.62364" lon="9.29568">
        <ele>38.59</ele>
        <time>2014-06-03T19:57:01Z</time>
      </trkpt>
      <trkpt lat="41.6239" lon="9.29585">
        <ele>36.67</ele>
        <time>2014-06-03T19:57:03Z</time>
      </trkpt>
      <trkpt lat="41.62401" lon="9.29597">
        <ele>36.19</ele>
        <time>2014-06-03T19:57:04Z</time>
      </trkpt>
      <trkpt lat="41.62408" lon="9.29612">
        <ele>35.23</ele>
        <time>2014-06-03T19:57:05Z</time>
      </trkpt>
      <trkpt lat="41.62419" lon="9.29652">
        <ele>32.82</ele>
        <time>2014-06-03T19:57:07Z</time>
      </trkpt>
      <trkpt lat="41.62454" lon="9.29879">
        <ele>24.17</ele>
        <time>2014-06-03T19:57:18Z</time>
      </trkpt>
      <trkpt lat="41.6245" lon="9.29978">
        <ele>22.73</ele>
        <time>2014-06-03T19:57:25Z</time>
      </trkpt>
      <trkpt lat="41.62445" lon="9.29999">
        <ele>22.25</ele>
        <time>2014-06-03T19:57:27Z</time>
      </trkpt>
      <trkpt lat="41.62442" lon="9.30009">
        <ele>22.25</ele>
        <time>2014-06-03T19:57:28Z</time>
      </trkpt>
      <trkpt lat="41.62438" lon="9.30017">
        <ele>21.77</ele>
        <time>2014-06-03T19:57:29Z</time>
      </trkpt>
      <trkpt lat="41.62433" lon="9.30024">
        <ele>21.29</ele>
        <time>2014-06-03T19:57:30Z</time>
      </trkpt>
      <trkpt lat="41.62426" lon="9.3003">
        <ele>20.32</ele>
        <time>2014-06-03T19:57:31Z</time>
      </trkpt>
      <trkpt lat="41.6242" lon="9.30033">
        <ele>20.32</ele>
        <time>2014-06-03T19:57:32Z</time>
      </trkpt>
      <trkpt lat="41.62413" lon="9.30036">
        <ele>20.81</ele>
        <time>2014-06-03T19:57:33Z</time>
      </trkpt>
      <trkpt lat="41.62406" lon="9.30037">
        <ele>19.84</ele>
        <time>2014-06-03T19:57:34Z</time>
      </trkpt>
      <trkpt lat="41.62396" lon="9.30039">
        <ele>18.88</ele>
        <time>2014-06-03T19:57:35Z</time>
      </trkpt>
      <trkpt lat="41.62365" lon="9.30039">
        <ele>17.92</ele>
        <time>2014-06-03T19:57:38Z</time>
      </trkpt>
      <trkpt lat="41.62355" lon="9.30036">
        <ele>17.92</ele>
        <time>2014-06-03T19:57:39Z</time>
      </trkpt>
      <trkpt lat="41.62344" lon="9.3003">
        <ele>17.92</ele>
        <time>2014-06-03T19:57:40Z</time>
      </trkpt>
      <trkpt lat="41.62238" lon="9.29962">
        <ele>19.84</ele>
        <time>2014-06-03T19:57:50Z</time>
      </trkpt>
      <trkpt lat="41.62136" lon="9.29895">
        <ele>19.36</ele>
        <time>2014-06-03T19:58:00Z</time>
      </trkpt>
      <trkpt lat="41.62073" lon="9.29866">
        <ele>20.32</ele>
        <time>2014-06-03T19:58:06Z</time>
      </trkpt>
      <trkpt lat="41.62064" lon="9.29864">
        <ele>20.32</ele>
        <time>2014-06-03T19:58:07Z</time>
      </trkpt>
      <trkpt lat="41.62036" lon="9.29865">
        <ele>19.36</ele>
        <time>2014-06-03T19:58:13Z</time>
      </trkpt>
      <trkpt lat="41.62035" lon="9.29868">
        <ele>19.36</ele>
        <time>2014-06-03T19:58:14Z</time>
      </trkpt>
      <trkpt lat="41.62034" lon="9.29872">
        <ele>19.84</ele>
        <time>2014-06-03T19:58:15Z</time>
      </trkpt>
      <trkpt lat="41.62033" lon="9.29876">
        <ele>19.36</ele>
        <time>2014-06-03T19:58:16Z</time>
      </trkpt>
      <trkpt lat="41.62033" lon="9.29878">
        <ele>19.84</ele>
        <time>2014-06-03T19:58:17Z</time>
      </trkpt>
      <trkpt lat="41.62033" lon="9.29882">
        <ele>19.84</ele>
        <time>2014-06-03T19:58:18Z</time>
      </trkpt>
      <trkpt lat="41.62033" lon="9.29887">
        <ele>19.84</ele>
        <time>2014-06-03T19:58:19Z</time>
      </trkpt>
      <trkpt lat="41.62046" lon="9.29932">
        <ele>18.88</ele>
        <time>2014-06-03T19:58:32Z</time>
      </trkpt>
      <trkpt lat="41.62052" lon="9.29934">
        <ele>17.92</ele>
        <time>2014-06-03T19:58:44Z</time>
      </trkpt>
      <trkpt lat="41.62056" lon="9.29935">
        <ele>17.92</ele>
        <time>2014-06-03T19:58:51Z</time>
      </trkpt>
      <trkpt lat="41.62057" lon="9.29934">
        <ele>15.52</ele>
        <time>2014-06-03T19:59:04Z</time>
      </trkpt>
    </trkseg>
  </trk>
  <rte>
    <name><![CDATA[412o2]]></name>
      <rtept lat="43.29703" lon="3.51239">
        <ele>9.8</ele>
        <name><![CDATA[Début]]></name>
      </rtept>
      <rtept lat="45.53327" lon="4.63035">
        <ele>227</ele>
        <name><![CDATA[Fin]]></name>
      </rtept>
    </rte>
  <rte>
    <name><![CDATA[Enregistremen: 20 Avr. 2014 11:54]]></name>
      <rtept lat="43.29703" lon="3.51239">
        <ele>9.8</ele>
        <name><![CDATA[Début]]></name>
      </rtept>
      <rtept lat="43.29697" lon="3.51234">
        <ele>10</ele>
        <name><![CDATA[Fin]]></name>
      </rtept>
    </rte>
  <rte>
    <name><![CDATA[Enregistremen: 25 Avr. 2014 18:53]]></name>
      <rtept lat="43.29985" lon="3.47166">
        <ele>11.5</ele>
        <name><![CDATA[Début]]></name>
      </rtept>
      <rtept lat="43.29703" lon="3.51217">
        <ele>10.3</ele>
        <name><![CDATA[Fin]]></name>
      </rtept>
    </rte>
  <rte>
    <name><![CDATA[Enregistremen: 26 Avr. 2014 09:29]]></name>
      <rtept lat="43.29708" lon="3.51221">
        <ele>10.1</ele>
        <name><![CDATA[Début]]></name>
      </rtept>
      <rtept lat="44.8036" lon="3.42125">
        <ele>1116.3</ele>
        <name><![CDATA[Fin]]></name>
      </rtept>
    </rte>
  <rte>
    <name><![CDATA[Enregistremen: 26 Avr. 2014 13:36]]></name>
      <rtept lat="44.80459" lon="3.42344">
        <ele>1127.9</ele>
        <name><![CDATA[Début]]></name>
      </rtept>
      <rtept lat="45.5332" lon="4.63052">
        <ele>227</ele>
        <name><![CDATA[Fin]]></name>
      </rtept>
    </rte>
  <rte>
    <name><![CDATA[Enregistremen: 27 Avr. 2014 17:19]]></name>
      <rtept lat="45.53325" lon="4.63029">
        <ele>227</ele>
        <name><![CDATA[Début]]></name>
      </rtept>
      <rtept lat="45.53314" lon="4.6305">
        <ele>227</ele>
        <name><![CDATA[Fin]]></name>
      </rtept>
    </rte>
  <rte>
    <name><![CDATA[Enregistremen: 29 Avr. 2014 16:08]]></name>
      <rtept lat="45.70924" lon="4.98048">
        <ele>212</ele>
        <name><![CDATA[Début]]></name>
      </rtept>
      <rtept lat="45.87983" lon="4.59593">
        <ele>320.7</ele>
        <name><![CDATA[Fin]]></name>
      </rtept>
    </rte>
  <rte>
    <name><![CDATA[Enregistremen: 30 Avr. 2014 13:54]]></name>
      <rtept lat="45.87974" lon="4.59628">
        <ele>312.7</ele>
        <name><![CDATA[Début]]></name>
      </rtept>
      <rtept lat="45.70896" lon="4.98136">
        <ele>212</ele>
        <name><![CDATA[Fin]]></name>
      </rtept>
    </rte>
  <rte>
    <name><![CDATA[Enregistremen: 30 Avr. 2014 14:59]]></name>
      <rtept lat="45.70843" lon="4.98123">
        <ele>212</ele>
        <name><![CDATA[Début]]></name>
      </rtept>
      <rtept lat="45.53091" lon="4.62177">
        <ele>232.5</ele>
        <name><![CDATA[Fin]]></name>
      </rtept>
    </rte>
  <rte>
    <name><![CDATA[Lesfauxrdg]]></name>
      <rtept lat="44.80459" lon="3.42344">
        <ele>1127.9</ele>
        <name><![CDATA[Début]]></name>
      </rtept>
      <rtept lat="45.5332" lon="4.63052">
        <ele>227</ele>
        <name><![CDATA[Fin]]></name>
      </rtept>
    </rte>
</gpx>